Pagina principale
METAR-TAF:

METAR-TAF

Aeroporti :

Siirt, Turchia

latitudine: 37-58-41N, longitudine: 41-50-21E, altezza: 610 m

Osservazione

Il bollettino è stato emesso 13 ore e 40 minuti fa, alle 12:50 UTC
Vento 5 kt da sud, variando fra sud/sud-est e sud-ovest
Temperature 30°C
Umidità 12%
Pressione 1017 hPa
Visibilità 10 km o più
nessuna nube inferiore a 1500 m e nessun cumulonembo

METAR: LTCL 241250Z 19005KT 160V220 CAVOK 30/M03 Q1017

Ora: 05:30 (02:30 UTC)

Previsione

Il bollettino è stato emesso 12 ore e 50 minuti fa, alle 13:40 UTC
Previsione valida dal 24 alle 15 UTC al 24 alle 24 UTC
Vento 2 kt da direzioni variabili
Visibilità 10 km o più
nessuna nube inferiore a 1500 m e nessun cumulonembo

TAF: LTCL 241340Z 2415/2424 VRB02KT CAVOK

Osservazioni e previsioni meteorologiche di più di 4000 aeroporti (messaggi METAR e TAF).

Le stazioni disponibili sono rappresentate dai dischi gialli e rossi sulla carta.

Puntare il mouse per vedere il nome della stazione.

Clicca sopra per visualizzare le osservazioni e previsioni meteorologiche.

Per cambiare la mappa : fare clic sui pulsanti verdi con una croce nera per ingrandire, il pulsante verde con un trattino per diminuire, o sulla freccia verde per le mappe adiacenti.


METAR-TAF: